Time;durP1;ratioP1;P1;durP2;ratioP2;P2;SDS_P1;SDS_P2;PMS_P1;PMS_P2;Temp;Humidity;BMP_temperature;BMP_pressure;BME280_temperature;BME280_humidity;BME280_pressure;Samples;Min_cycle;Max_cycle;Signal;HPM_P1;HPM_P2
2021/12/05 00:19:32;;;;;;;;;1.00;1.00;;;;;5.97;69.78;99749.78;5035391;28;45291;-56
2021/12/05 00:24:21;;;;;;;;;0.50;0.00;;;;;6.02;69.85;99751.91;5017964;28;45249;-60
2021/12/05 00:26:52;;;;;;;;;2.00;0.40;;;;;5.79;69.85;99708.66;5035670;28;45814;-56
2021/12/05 00:37:49;;;;;;;;;1.00;1.00;;;;;5.42;69.62;99655.41;5035470;28;45361;-59
2021/12/05 00:55:56;;;;;;;;;0.80;0.80;;;;;5.84;69.68;99711.63;5015468;28;45369;-58
2021/12/05 01:12:03;;;;;;;;;0.00;0.00;;;;;5.91;69.38;99726.09;5014799;28;45403;-55
2021/12/05 01:14:34;;;;;;;;;1.40;0.40;;;;;5.76;70.29;99720.81;5015077;28;45401;-59
2021/12/05 01:17:01;;;;;;;;;1.60;1.60;;;;;5.76;69.54;99723.53;4998063;28;45383;-57
2021/12/05 01:19:29;;;;;;;;;7.60;2.40;;;;;5.64;69.46;99708.84;5014640;28;45671;-57
2021/12/05 01:21:57;;;;;;;;;1.00;0.00;;;;;5.61;70.73;99717.44;4996569;28;45289;-58
2021/12/05 01:33:06;;;;;;;;;0.75;0.75;;;;;5.86;69.76;99708.69;5014633;28;45379;-57
2021/12/05 01:40:22;;;;;;;;;0.00;0.00;;;;;5.88;69.75;99690.25;5014499;28;45766;-51
2021/12/05 01:58:48;;;;;;;;;0.40;0.40;;;;;5.70;70.30;99672.63;5034332;28;45641;-58
2021/12/05 02:01:27;;;;;;;;;0.00;0.00;;;;;5.48;69.69;99658.31;5034233;28;45870;-52
2021/12/05 02:09:46;;;;;;;;;1.60;0.00;;;;;5.55;70.03;99649.13;5034316;28;45416;-56
2021/12/05 02:34:04;;;;;;;;;0.80;0.00;;;;;5.57;70.06;99678.88;5033824;28;45685;-55
2021/12/05 02:41:28;;;;;;;;;1.00;0.00;;;;;5.48;70.30;99677.38;5020021;28;45617;-55
2021/12/05 02:44:11;;;;;;;;;0.00;0.00;;;;;5.52;71.24;99676.78;5037237;28;46337;-58
2021/12/05 02:46:40;;;;;;;;;0.00;0.00;;;;;5.52;70.29;99667.75;5035611;28;45414;-57
2021/12/05 02:49:10;;;;;;;;;1.00;1.00;;;;;5.28;70.49;99640.06;5037310;28;45247;-55
2021/12/05 02:51:35;;;;;;;;;0.00;0.00;;;;;5.50;70.08;99673.41;5009266;28;45407;-51
2021/12/05 02:56:27;;;;;;;;;0.00;0.00;;;;;5.55;70.31;99656.50;5016947;28;45350;-57
2021/12/05 02:58:57;;;;;;;;;0.20;0.00;;;;;5.22;70.09;99625.38;5017395;28;45412;-57
2021/12/05 03:01:33;;;;;;;;;0.00;0.00;;;;;5.37;70.66;99644.28;5010024;28;45633;-54
2021/12/05 03:03:59;;;;;;;;;1.20;0.40;;;;;5.49;71.09;99641.78;4994347;28;46301;-58
2021/12/05 03:06:27;;;;;;;;;0.25;0.00;;;;;5.51;70.54;99650.59;5014863;28;45903;-53
2021/12/05 03:09:03;;;;;;;;;0.00;0.00;;;;;5.47;70.14;99649.34;5016178;28;45367;-56
2021/12/05 03:11:29;;;;;;;;;0.00;0.00;;;;;5.35;70.55;99635.50;5016441;28;45775;-52
2021/12/05 03:13:54;;;;;;;;;0.25;0.25;;;;;5.17;70.73;99608.84;5015784;28;46529;-52
2021/12/05 03:16:20;;;;;;;;;0.00;0.00;;;;;5.25;70.59;99629.59;4993740;28;45483;-57
2021/12/05 03:18:46;;;;;;;;;0.00;0.00;;;;;5.23;71.28;99612.63;5016863;28;45323;-53
2021/12/05 03:21:12;;;;;;;;;0.00;0.00;;;;;5.45;71.30;99634.25;4999281;28;45576;-55
2021/12/05 03:23:39;;;;;;;;;0.00;0.00;;;;;5.55;70.27;99638.25;5017024;28;45864;-57
2021/12/05 03:26:05;;;;;;;;;1.60;0.80;;;;;5.60;70.64;99644.97;5016910;28;45851;-56
2021/12/05 03:28:31;;;;;;;;;0.00;0.00;;;;;5.64;69.70;99640.78;4982546;28;45471;-55
2021/12/05 03:30:56;;;;;;;;;0.00;0.00;;;;;5.59;69.40;99637.84;5016758;28;45319;-52
2021/12/05 03:33:22;;;;;;;;;1.00;0.00;;;;;5.51;70.17;99641.59;4998154;28;46445;-60
2021/12/05 03:35:47;;;;;;;;;1.00;0.00;;;;;5.47;70.30;99634.88;5016476;28;45474;-54
2021/12/05 03:38:13;;;;;;;;;0.50;0.50;;;;;5.23;69.38;99608.03;5015485;28;45455;-50
2021/12/05 03:40:38;;;;;;;;;0.00;0.00;;;;;5.35;70.77;99623.75;4998607;28;45587;-52
2021/12/05 03:43:05;;;;;;;;;0.00;0.00;;;;;5.41;70.68;99634.66;4998606;28;46162;-56
2021/12/05 03:45:35;;;;;;;;;0.00;0.00;;;;;5.39;69.51;99627.75;5016101;28;45335;-59
2021/12/05 03:48:00;;;;;;;;;2.20;0.00;;;;;5.37;69.79;99633.41;5016421;28;45380;-53
2021/12/05 03:50:26;;;;;;;;;0.00;0.00;;;;;5.32;68.85;99622.28;5014950;28;45495;-56
2021/12/05 03:52:52;;;;;;;;;0.00;0.00;;;;;4.92;69.48;99568.59;5016464;28;45707;-58
2021/12/05 03:55:17;;;;;;;;;0.00;0.00;;;;;5.18;69.98;99626.84;5015838;28;45503;-52
2021/12/05 03:57:43;;;;;;;;;0.00;0.00;;;;;5.17;70.73;99630.59;5015970;28;45304;-58
2021/12/05 04:00:18;;;;;;;;;0.00;0.00;;;;;5.02;70.71;99600.84;5016387;28;45657;-53
2021/12/05 04:02:46;;;;;;;;;0.20;0.00;;;;;5.23;69.66;99626.25;4997592;28;46078;-49
2021/12/05 04:05:11;;;;;;;;;0.00;0.00;;;;;5.23;70.18;99624.34;5015809;28;45545;-49
2021/12/05 04:07:37;;;;;;;;;0.00;0.00;;;;;5.21;70.26;99628.31;4981491;28;45449;-58
2021/12/05 04:10:03;;;;;;;;;0.00;0.00;;;;;5.05;70.24;99589.56;5015730;28;45390;-56
2021/12/05 04:12:28;;;;;;;;;1.00;0.00;;;;;5.14;70.16;99612.81;5015354;28;46725;-56
2021/12/05 04:14:54;;;;;;;;;0.00;0.00;;;;;5.13;70.07;99618.47;5015859;28;45315;-58
2021/12/05 04:17:20;;;;;;;;;0.25;0.00;;;;;5.10;70.57;99621.56;5015783;28;45420;-60
2021/12/05 04:19:46;;;;;;;;;0.75;0.00;;;;;5.12;69.81;99627.66;5015698;28;45332;-59
2021/12/05 04:22:12;;;;;;;;;0.50;0.50;;;;;5.14;69.60;99614.69;4981465;28;46729;-57
2021/12/05 04:24:37;;;;;;;;;0.25;0.00;;;;;5.11;70.25;99624.09;4997553;28;45817;-54
2021/12/05 04:27:03;;;;;;;;;1.00;0.00;;;;;5.07;69.18;99622.00;5015564;28;45502;-55
2021/12/05 04:29:29;;;;;;;;;0.00;0.00;;;;;5.08;70.40;99621.78;5016094;28;45367;-57
2021/12/05 04:31:55;;;;;;;;;0.00;0.00;;;;;4.80;69.91;99586.53;4997557;28;47274;-54
2021/12/05 04:34:20;;;;;;;;;0.00;0.00;;;;;5.05;70.13;99613.19;5015827;28;45351;-51
2021/12/05 04:36:46;;;;;;;;;0.00;0.00;;;;;5.07;69.24;99622.00;5015657;28;45434;-52
2021/12/05 04:39:12;;;;;;;;;0.00;0.00;;;;;4.81;69.85;99569.19;5016033;28;45454;-61
2021/12/05 04:41:41;;;;;;;;;1.00;0.00;;;;;5.07;70.07;99609.22;4997803;28;46143;-61
2021/12/05 04:44:07;;;;;;;;;0.00;0.00;;;;;5.09;70.18;99611.75;4997899;28;45434;-56
2021/12/05 04:46:33;;;;;;;;;0.00;0.00;;;;;5.00;69.12;99592.03;4998134;28;45394;-57
2021/12/05 04:48:58;;;;;;;;;0.00;0.00;;;;;5.04;69.57;99606.91;5015786;28;45586;-58
2021/12/05 04:51:27;;;;;;;;;0.00;0.00;;;;;4.93;69.87;99608.34;5015289;28;45664;-55
2021/12/05 04:53:53;;;;;;;;;0.40;0.40;;;;;4.78;69.56;99592.16;4997962;28;45430;-59
2021/12/05 04:56:18;;;;;;;;;0.00;0.00;;;;;4.86;70.78;99607.47;4981300;28;45475;-59
2021/12/05 04:58:44;;;;;;;;;1.00;0.00;;;;;4.77;70.15;99614.09;4997646;28;45585;-58
2021/12/05 05:01:09;;;;;;;;;1.00;0.00;;;;;4.74;70.97;99613.47;4997614;28;45384;-55
2021/12/05 05:03:35;;;;;;;;;0.00;0.00;;;;;4.79;70.57;99615.59;5015477;28;45435;-58
2021/12/05 05:06:15;;;;;;;;;0.00;0.00;;;;;4.78;70.39;99599.47;5015734;28;45323;-57
2021/12/05 05:08:45;;;;;;;;;1.00;0.00;;;;;4.51;70.05;99548.56;5015487;28;45439;-50
2021/12/05 05:11:12;;;;;;;;;1.00;0.00;;;;;4.63;69.72;99586.88;5015232;28;46293;-56
2021/12/05 05:13:38;;;;;;;;;0.00;0.00;;;;;4.43;70.60;99546.84;4997414;28;45404;-54
2021/12/05 05:16:06;;;;;;;;;0.00;0.00;;;;;4.70;70.86;99593.16;4997660;28;45434;-54
2021/12/05 05:18:47;;;;;;;;;1.00;0.00;;;;;4.50;71.10;99546.03;5015235;28;45426;-55
2021/12/05 05:39:43;;;;;;;;;1.20;0.00;;;;;4.91;70.81;99588.66;5000250;28;45537;-60
2021/12/05 05:50:12;;;;;;;;;1.00;1.00;;;;;4.95;70.36;99600.81;4999581;28;45563;-55
2021/12/05 05:52:37;;;;;;;;;3.50;0.00;;;;;4.84;70.37;99577.75;4980011;28;46114;-58
2021/12/05 05:55:03;;;;;;;;;0.50;0.50;;;;;5.05;70.55;99614.03;4996629;28;45569;-60
2021/12/05 05:57:37;;;;;;;;;0.00;0.00;;;;;5.08;70.29;99600.00;5014583;28;45288;-57
2021/12/05 06:00:13;;;;;;;;;0.00;0.00;;;;;5.14;70.45;99593.75;4998050;28;45462;-57
2021/12/05 06:05:23;;;;;;;;;1.00;0.00;;;;;5.15;70.50;99586.44;5014273;28;45509;-51
2021/12/05 06:07:48;;;;;;;;;0.00;0.00;;;;;4.81;70.21;99547.44;5013255;28;45470;-53
2021/12/05 06:10:19;;;;;;;;;0.00;0.00;;;;;4.33;70.36;99468.41;4996656;28;45420;-58
2021/12/05 06:12:45;;;;;;;;;0.00;0.00;;;;;4.77;70.30;99535.28;4999556;28;46613;-57
2021/12/05 06:15:12;;;;;;;;;0.00;0.00;;;;;5.10;70.17;99581.63;5000422;28;45478;-59
2021/12/05 06:17:38;;;;;;;;;0.00;0.00;;;;;4.94;70.62;99543.91;5000093;28;45491;-60
2021/12/05 06:20:12;;;;;;;;;0.00;0.00;;;;;5.13;70.29;99574.94;5000403;28;45415;-57
2021/12/05 06:22:37;;;;;;;;;0.00;0.00;;;;;5.10;70.96;99565.31;4999838;28;46701;-54
2021/12/05 06:25:04;;;;;;;;;0.00;0.00;;;;;5.20;70.55;99573.06;5000044;28;45836;-57
2021/12/05 06:27:30;;;;;;;;;0.00;0.00;;;;;5.17;70.40;99570.75;5000268;28;45352;-59
2021/12/05 06:30:07;;;;;;;;;0.00;0.00;;;;;5.12;71.20;99562.38;5017513;28;45316;-59
2021/12/05 06:36:49;;;;;;;;;0.00;0.00;;;;;5.20;70.18;99583.09;5017476;28;46178;-55
2021/12/05 06:46:14;;;;;;;;;1.00;1.00;;;;;5.07;71.18;99582.03;4995925;28;45383;-53
2021/12/05 06:48:43;;;;;;;;;0.00;0.00;;;;;5.09;71.53;99587.25;4999444;28;45404;-55
2021/12/05 06:51:11;;;;;;;;;0.00;0.00;;;;;5.07;70.94;99589.34;5000208;28;45482;-55
2021/12/05 06:53:37;;;;;;;;;0.80;0.80;;;;;5.09;71.01;99581.81;4999014;28;46450;-56
2021/12/05 06:56:04;;;;;;;;;0.00;0.00;;;;;5.11;70.46;99585.16;5017241;28;45534;-51
2021/12/05 06:58:31;;;;;;;;;0.00;0.00;;;;;5.13;71.21;99580.38;5017081;28;45332;-48
2021/12/05 07:00:57;;;;;;;;;0.00;0.00;;;;;5.08;70.76;99588.31;5017223;28;45392;-54
2021/12/05 07:03:22;;;;;;;;;0.25;0.25;;;;;5.17;70.66;99597.13;4983122;28;45746;-55
2021/12/05 07:08:46;;;;;;;;;0.00;0.00;;;;;5.14;71.29;99620.13;4972323;28;45369;-51
2021/12/05 07:11:19;;;;;;;;;1.00;1.00;;;;;5.08;73.33;99615.50;5017107;28;45379;-59
2021/12/05 07:14:24;;;;;;;;;1.00;0.00;;;;;5.14;73.34;99617.41;5016665;28;47061;-53
2021/12/05 07:16:57;;;;;;;;;0.00;0.00;;;;;4.98;74.42;99614.03;5016663;28;45352;-52
2021/12/05 07:22:00;;;;;;;;;0.40;0.40;;;;;5.00;73.58;99611.94;5016572;28;45298;-57
2021/12/05 07:24:47;;;;;;;;;1.00;0.80;;;;;5.01;74.38;99612.75;5016569;28;45465;-55
2021/12/05 07:41:09;;;;;;;;;0.00;0.00;;;;;5.01;74.76;99610.03;5001368;28;45412;-61
2021/12/05 07:43:35;;;;;;;;;1.40;0.00;;;;;4.95;74.74;99621.72;5000129;28;45516;-56
2021/12/05 07:46:06;;;;;;;;;0.50;0.00;;;;;4.90;74.83;99607.91;4993768;28;46820;-58
2021/12/05 07:48:34;;;;;;;;;0.00;0.00;;;;;4.87;75.42;99604.53;4976534;28;45598;-60
2021/12/05 07:51:15;;;;;;;;;0.80;0.00;;;;;4.90;74.94;99595.13;4998614;28;45517;-54
2021/12/05 07:56:42;;;;;;;;;0.00;0.00;;;;;4.96;73.96;99601.66;5015977;28;45618;-61
2021/12/05 08:15:23;;;;;;;;;0.00;0.00;;;;;5.11;75.13;99602.34;5000680;28;45312;-59
2021/12/05 08:17:52;;;;;;;;;2.80;1.00;;;;;5.18;75.70;99615.94;5016037;28;46503;-59
2021/12/05 08:20:19;;;;;;;;;1.00;0.80;;;;;5.26;75.68;99618.50;5015670;28;45418;-62
2021/12/05 08:22:45;;;;;;;;;0.00;0.00;;;;;5.31;75.58;99612.44;4949379;28;45303;-53
2021/12/05 08:25:12;;;;;;;;;1.00;1.00;;;;;5.34;74.42;99609.31;4978595;28;45525;-55
2021/12/05 08:27:41;;;;;;;;;0.80;0.80;;;;;5.34;73.93;99617.47;4996044;28;45758;-58
2021/12/05 08:30:11;;;;;;;;;0.80;0.00;;;;;5.11;74.87;99580.59;5008958;28;45351;-56
2021/12/05 08:32:56;;;;;;;;;0.60;0.60;;;;;5.36;74.09;99615.41;4996051;28;45368;-61
2021/12/05 08:39:08;;;;;;;;;5.80;5.00;;;;;4.86;74.12;99523.19;4995627;28;45422;-58
2021/12/05 09:26:48;;;;;;;;;0.00;0.00;;;;;5.87;73.78;99667.63;4997863;28;45332;-60
2021/12/05 09:50:53;;;;;;;;;2.00;1.20;;;;;6.33;72.73;99659.72;5014110;28;45358;-61
2021/12/05 10:12:51;;;;;;;;;1.80;1.00;;;;;6.31;73.47;99681.75;5016911;28;45949;-63
2021/12/05 10:35:53;;;;;;;;;0.00;0.00;;;;;6.54;72.51;99672.28;5022167;28;45360;-61
2021/12/05 10:39:02;;;;;;;;;0.00;0.00;;;;;6.59;72.33;99675.22;5011187;28;46598;-63
2021/12/05 10:44:09;;;;;;;;;4.00;1.40;;;;;6.57;72.34;99652.75;5016441;28;45493;-59
2021/12/05 10:46:35;;;;;;;;;2.40;1.00;;;;;6.58;72.37;99653.63;5016573;28;45558;-60
2021/12/05 10:49:09;;;;;;;;;1.25;1.25;;;;;6.64;71.81;99666.41;4983434;28;45446;-53
2021/12/05 10:51:44;;;;;;;;;1.00;1.00;;;;;6.63;72.52;99657.38;4986265;28;45525;-61
2021/12/05 10:54:12;;;;;;;;;0.60;0.60;;;;;6.69;72.48;99666.59;5017816;28;45403;-57
2021/12/05 10:56:38;;;;;;;;;1.20;1.20;;;;;6.12;72.36;99576.31;5016908;28;45497;-59
2021/12/05 10:59:07;;;;;;;;;1.20;0.40;;;;;6.66;71.52;99660.75;5015652;28;45648;-55
2021/12/05 11:01:38;;;;;;;;;0.00;0.00;;;;;6.43;72.69;99621.97;5016398;28;45485;-63
2021/12/05 11:04:06;;;;;;;;;2.40;2.40;;;;;6.72;72.51;99651.72;5017041;28;45393;-55
2021/12/05 11:06:33;;;;;;;;;0.80;0.80;;;;;6.69;72.23;99647.50;5016412;28;45576;-50
2021/12/05 11:09:07;;;;;;;;;1.00;1.00;;;;;6.85;73.12;99651.66;5007477;28;46038;-53
2021/12/05 11:11:35;;;;;;;;;1.80;1.00;;;;;6.79;72.33;99622.53;4995937;28;45491;-56
2021/12/05 11:14:03;;;;;;;;;5.80;4.20;;;;;7.01;71.13;99650.38;5001391;28;45447;-53
2021/12/05 11:16:40;;;;;;;;;3.80;1.40;;;;;6.75;70.92;99632.19;4991592;28;45534;-54
2021/12/05 11:19:21;;;;;;;;;2.00;2.00;;;;;6.96;71.79;99641.13;4978102;28;45475;-58
2021/12/05 11:22:07;;;;;;;;;2.80;2.80;;;;;6.30;72.19;99538.34;4995215;28;45327;-58
2021/12/05 11:24:35;;;;;;;;;2.40;1.80;;;;;6.96;71.73;99638.41;4995169;28;45367;-54
2021/12/05 11:27:06;;;;;;;;;1.60;1.60;;;;;7.02;71.92;99646.59;4993204;28;45347;-56
2021/12/05 11:29:54;;;;;;;;;1.00;1.00;;;;;6.98;72.02;99645.31;5010214;28;46946;-59
2021/12/05 11:32:28;;;;;;;;;1.00;1.00;;;;;6.87;72.17;99643.25;4995997;28;45966;-60
2021/12/05 11:34:54;;;;;;;;;2.00;0.80;;;;;6.61;72.14;99612.28;4996007;28;45462;-59
2021/12/05 11:37:19;;;;;;;;;1.25;1.25;;;;;6.73;72.38;99640.56;4995437;28;45663;-55
2021/12/05 11:39:46;;;;;;;;;1.00;1.00;;;;;6.67;72.35;99644.13;4994260;28;46623;-57
2021/12/05 11:42:17;;;;;;;;;3.20;2.20;;;;;6.45;72.75;99597.25;4996430;28;45397;-59
2021/12/05 11:44:46;;;;;;;;;2.00;2.00;;;;;6.43;73.05;99621.97;4994922;28;45422;-56
2021/12/05 11:47:13;;;;;;;;;4.60;1.60;;;;;6.54;73.71;99641.44;4994075;28;45491;-56
2021/12/05 11:49:39;;;;;;;;;1.60;1.60;;;;;6.55;74.33;99648.59;4995045;28;45483;-56
2021/12/05 11:52:04;;;;;;;;;2.00;2.00;;;;;6.55;75.01;99649.41;4983143;28;49924;-60
2021/12/05 11:54:36;;;;;;;;;4.00;3.25;;;;;6.55;75.27;99673.13;4995045;28;45236;-61
2021/12/05 11:57:11;;;;;;;;;1.80;1.80;;;;;6.48;74.91;99673.13;4996842;28;45530;-57
2021/12/05 11:59:44;;;;;;;;;2.40;0.40;;;;;6.43;75.42;99670.19;4996161;28;45640;-60
2021/12/05 12:02:13;;;;;;;;;0.00;0.00;;;;;6.40;74.55;99676.06;4996402;28;45514;-59
2021/12/05 12:05:02;;;;;;;;;0.20;0.20;;;;;6.28;74.19;99679.44;4987341;28;45478;-57
2021/12/05 12:07:35;;;;;;;;;1.40;0.40;;;;;6.22;75.08;99686.56;4993479;28;45696;-58
2021/12/05 12:10:07;;;;;;;;;2.80;2.00;;;;;6.11;75.62;99681.72;4970914;28;45845;-55
2021/12/05 12:12:37;;;;;;;;;0.20;0.00;;;;;6.07;75.09;99692.22;4964777;28;45447;-56
2021/12/05 12:15:03;;;;;;;;;0.00;0.00;;;;;5.99;74.44;99691.53;4965306;28;45844;-59
2021/12/05 12:17:28;;;;;;;;;0.00;0.00;;;;;5.96;75.23;99693.63;4975398;28;45544;-58
2021/12/05 12:19:54;;;;;;;;;0.00;0.00;;;;;6.03;75.13;99692.84;4984909;28;45762;-55
2021/12/05 12:22:21;;;;;;;;;2.00;0.00;;;;;5.95;74.50;99678.34;4994742;28;45500;-52
2021/12/05 12:24:51;;;;;;;;;1.40;0.60;;;;;6.06;74.51;99686.97;4993780;28;45420;-58
2021/12/05 12:27:17;;;;;;;;;1.00;1.00;;;;;5.98;74.49;99674.38;4986896;28;45586;-58
2021/12/05 12:29:42;;;;;;;;;0.80;0.80;;;;;6.04;74.00;99699.97;4957077;28;46720;-56
2021/12/05 12:32:14;;;;;;;;;0.00;0.00;;;;;6.07;74.54;99705.81;4967376;28;45347;-59
2021/12/05 12:34:40;;;;;;;;;0.80;0.80;;;;;6.11;74.04;99714.44;4995317;28;45452;-55
2021/12/05 12:37:07;;;;;;;;;0.50;0.00;;;;;6.08;73.59;99712.94;4995273;28;45749;-55
2021/12/05 12:39:39;;;;;;;;;0.20;0.20;;;;;6.03;72.87;99701.81;4984787;28;46176;-54
2021/12/05 12:42:19;;;;;;;;;0.40;0.00;;;;;6.00;73.12;99707.69;4972395;28;45313;-60
2021/12/05 12:45:03;;;;;;;;;0.20;0.20;;;;;5.94;74.08;99705.78;4986424;28;45484;-61
2021/12/05 12:47:40;;;;;;;;;1.00;0.00;;;;;5.76;73.31;99671.78;4989485;28;45660;-61
2021/12/05 12:50:34;;;;;;;;;0.20;0.20;;;;;5.90;74.59;99712.66;4975701;28;46663;-56
2021/12/05 12:53:10;;;;;;;;;4.00;1.00;;;;;5.91;74.10;99712.47;4948230;28;46962;-60
2021/12/05 12:55:38;;;;;;;;;0.00;0.00;;;;;5.72;73.62;99675.16;4976117;28;45376;-59
2021/12/05 12:58:06;;;;;;;;;1.00;1.00;;;;;6.03;73.01;99703.72;4974413;28;45508;-63
2021/12/05 13:00:32;;;;;;;;;2.40;1.00;;;;;6.20;73.34;99707.72;4974250;28;46466;-62
2021/12/05 13:03:13;;;;;;;;;0.80;0.80;;;;;6.39;72.73;99715.28;4975654;28;45316;-58
2021/12/05 13:07:14;;;;;;;;;1.00;1.00;;;;;6.41;71.99;99716.72;4974512;28;45426;-61
2021/12/05 13:11:14;;;;;;;;;3.80;1.00;;;;;6.67;72.01;99709.59;4974569;28;45822;-54
2021/12/05 13:13:42;;;;;;;;;1.40;1.40;;;;;5.90;71.50;99593.69;4974126;28;45372;-56
2021/12/05 13:16:19;;;;;;;;;2.00;2.00;;;;;5.99;71.65;99594.31;4974644;28;45565;-60
2021/12/05 13:18:46;;;;;;;;;2.60;2.00;;;;;6.77;71.36;99728.25;4975582;28;45474;-60
2021/12/05 13:21:36;;;;;;;;;5.00;2.40;;;;;6.14;71.68;99642.34;4975057;28;45619;-59
2021/12/05 13:24:23;;;;;;;;;0.20;0.20;;;;;6.74;71.31;99732.22;4974256;28;45426;-63
2021/12/05 13:26:48;;;;;;;;;1.80;1.80;;;;;6.75;71.31;99728.47;4975840;28;45403;-63
2021/12/05 13:29:22;;;;;;;;;3.25;3.25;;;;;6.75;71.70;99727.63;4985312;28;45680;-60
2021/12/05 13:32:08;;;;;;;;;3.00;2.00;;;;;6.74;71.00;99736.88;4994661;28;47550;-61
2021/12/05 13:34:34;;;;;;;;;2.00;2.00;;;;;6.56;71.79;99702.88;4977224;28;45458;-62
2021/12/05 13:37:06;;;;;;;;;4.20;1.60;;;;;6.75;71.46;99735.81;4994567;28;45345;-63
2021/12/05 13:39:47;;;;;;;;;3.20;3.20;;;;;6.70;72.05;99739.19;4995224;28;45492;-57
2021/12/05 13:42:18;;;;;;;;;6.80;4.80;;;;;6.66;71.86;99734.38;4976765;28;47800;-60
2021/12/05 13:44:58;;;;;;;;;6.00;5.80;;;;;6.59;72.12;99713.38;4994996;28;45461;-60
2021/12/05 13:47:29;;;;;;;;;5.00;5.00;;;;;6.75;72.16;99744.00;4994806;28;45387;-60
2021/12/05 13:49:56;;;;;;;;;4.20;3.80;;;;;6.75;72.29;99738.53;4977324;28;45411;-60
2021/12/05 13:52:39;;;;;;;;;2.80;2.40;;;;;6.88;72.61;99749.44;4960653;28;47133;-63
2021/12/05 13:55:36;;;;;;;;;4.20;2.80;;;;;6.94;72.45;99741.47;4977102;28;45483;-59
2021/12/05 13:58:23;;;;;;;;;2.60;2.60;;;;;6.98;71.23;99753.63;4976731;28;45268;-60
2021/12/05 14:00:59;;;;;;;;;3.00;3.00;;;;;7.08;71.59;99758.63;4994729;28;45475;-59
2021/12/05 14:03:51;;;;;;;;;7.80;4.60;;;;;7.10;71.78;99765.53;4976902;28;46630;-62
2021/12/05 14:06:32;;;;;;;;;3.00;2.80;;;;;7.05;71.67;99765.38;4977013;28;45439;-57
2021/12/05 14:09:10;;;;;;;;;2.40;2.40;;;;;7.02;71.82;99766.63;4994192;28;45391;-56
2021/12/05 14:11:37;;;;;;;;;2.80;2.80;;;;;6.93;72.19;99761.59;4994358;28;45636;-59
2021/12/05 14:14:05;;;;;;;;;2.00;2.00;;;;;6.93;72.95;99770.63;4994117;28;45951;-58
2021/12/05 14:16:37;;;;;;;;;1.00;1.00;;;;;6.34;72.91;99670.41;4994135;28;45368;-57
2021/12/05 14:19:08;;;;;;;;;2.20;2.20;;;;;6.62;72.76;99728.50;4994179;28;45381;-61
2021/12/05 14:21:37;;;;;;;;;3.20;3.20;;;;;6.91;73.06;99770.00;4977592;28;45390;-59
2021/12/05 14:24:02;;;;;;;;;1.40;1.40;;;;;6.88;72.46;99775.88;4976741;28;45774;-59
2021/12/05 14:26:29;;;;;;;;;2.25;2.00;;;;;6.81;72.67;99781.34;4994205;28;45359;-57
2021/12/05 14:29:08;;;;;;;;;3.00;2.00;;;;;6.80;72.61;99778.81;4976376;28;45619;-61
2021/12/05 14:31:39;;;;;;;;;2.60;2.60;;;;;6.47;72.73;99736.88;4976524;28;45528;-50
2021/12/05 14:34:05;;;;;;;;;2.40;2.40;;;;;6.70;72.49;99784.69;4997085;28;46066;-61
2021/12/05 14:36:34;;;;;;;;;5.80;2.00;;;;;6.67;73.02;99793.31;4997102;28;45329;-62
2021/12/05 14:39:11;;;;;;;;;1.00;1.00;;;;;6.40;73.55;99761.41;4997394;28;45514;-57
2021/12/05 14:41:37;;;;;;;;;4.20;2.00;;;;;6.61;73.14;99797.69;4997698;28;45391;-61
2021/12/05 14:44:03;;;;;;;;;5.00;2.80;;;;;6.64;73.58;99808.19;4979715;28;45455;-62
2021/12/05 14:46:29;;;;;;;;;5.00;5.00;;;;;6.64;73.45;99805.47;4979370;28;45954;-57
2021/12/05 14:48:56;;;;;;;;;3.00;3.00;;;;;6.68;73.70;99808.59;4979365;28;45314;-59
2021/12/05 14:51:32;;;;;;;;;1.00;1.00;;;;;6.72;73.73;99816.16;4996130;28;45355;-60
2021/12/05 14:54:06;;;;;;;;;1.00;1.00;;;;;6.58;73.02;99800.84;4996897;28;46224;-61
2021/12/05 14:56:34;;;;;;;;;3.80;2.00;;;;;6.71;73.08;99825.41;4963477;28;45444;-59
2021/12/05 14:59:09;;;;;;;;;2.00;1.80;;;;;6.68;73.07;99831.28;4996877;28;45530;-62
2021/12/05 15:01:36;;;;;;;;;5.00;2.60;;;;;6.63;73.48;99826.44;4979337;28;45523;-59
2021/12/05 15:04:02;;;;;;;;;7.40;4.80;;;;;6.64;74.16;99833.59;4996780;28;46027;-58
2021/12/05 15:06:37;;;;;;;;;5.00;1.80;;;;;6.63;73.74;99829.16;4997028;28;45357;-62
2021/12/05 15:09:20;;;;;;;;;5.40;4.60;;;;;6.62;73.88;99835.66;4980393;28;45367;-56
2021/12/05 15:11:57;;;;;;;;;2.00;2.00;;;;;6.40;74.72;99798.72;4979417;28;45338;-59
2021/12/05 15:14:23;;;;;;;;;2.00;2.00;;;;;6.72;74.46;99850.78;4979257;28;46130;-61
2021/12/05 15:16:57;;;;;;;;;5.00;2.75;;;;;6.04;74.05;99740.81;4996880;28;45422;-61
2021/12/05 15:19:24;;;;;;;;;3.80;3.00;;;;;6.72;74.23;99854.34;4963072;28;45675;-60
2021/12/05 15:21:49;;;;;;;;;5.60;2.00;;;;;6.72;74.39;99854.34;4996983;28;45464;-57
2021/12/05 15:24:16;;;;;;;;;5.00;5.00;;;;;6.70;74.90;99855.59;4979106;28;47817;-61
2021/12/05 15:26:41;;;;;;;;;3.60;3.60;;;;;6.73;74.30;99855.19;4979242;28;45457;-61
2021/12/05 15:29:07;;;;;;;;;5.00;5.00;;;;;6.77;74.44;99873.66;4978926;28;45433;-61
2021/12/05 15:31:35;;;;;;;;;6.25;2.75;;;;;6.48;74.43;99828.50;4979421;28;45557;-57
2021/12/05 15:34:00;;;;;;;;;2.80;2.80;;;;;6.70;74.77;99883.72;4979195;28;46426;-54
2021/12/05 15:36:31;;;;;;;;;1.75;1.75;;;;;6.70;74.87;99888.31;4996557;28;45309;-55
2021/12/05 15:38:56;;;;;;;;;3.40;3.20;;;;;6.70;75.13;99893.78;4996336;28;45386;-61
2021/12/05 15:41:23;;;;;;;;;6.00;2.00;;;;;6.67;75.31;99895.03;4997196;28;45504;-59
2021/12/05 15:43:48;;;;;;;;;5.00;3.00;;;;;6.60;76.06;99895.03;4978490;28;46269;-60
2021/12/05 15:46:14;;;;;;;;;4.00;4.00;;;;;6.55;75.85;99896.69;4979067;28;45554;-57
2021/12/05 15:48:40;;;;;;;;;52.75;40.50;;;;;6.67;75.37;99916.03;4977583;28;45432;-60
2021/12/05 15:51:10;;;;;;;;;9.25;6.50;;;;;6.59;74.87;99896.06;4996697;28;45424;-58
2021/12/05 15:53:35;;;;;;;;;15.00;13.00;;;;;6.57;74.96;99905.50;4978964;28;45711;-55
2021/12/05 15:56:04;;;;;;;;;11.25;7.25;;;;;6.61;75.06;99934.03;4978744;28;45465;-60
2021/12/05 15:58:32;;;;;;;;;1.00;1.00;;;;;6.19;74.70;99880.44;4990584;28;45630;-56
2021/12/05 16:01:13;;;;;;;;;5.00;3.80;;;;;6.51;75.15;99935.28;4995150;28;45348;-57
2021/12/05 16:03:46;;;;;;;;;5.80;5.00;;;;;6.52;75.30;99941.56;4988968;28;46893;-61
2021/12/05 16:06:13;;;;;;;;;6.00;6.00;;;;;6.50;75.63;99949.94;4973329;28;45942;-61
2021/12/05 16:08:39;;;;;;;;;6.00;4.80;;;;;6.49;75.41;99961.06;4975781;28;45353;-62
2021/12/05 16:11:13;;;;;;;;;21.25;13.25;;;;;6.50;74.73;99954.53;4980945;28;45518;-58
2021/12/05 16:13:41;;;;;;;;;10.40;9.20;;;;;6.47;74.97;99957.69;4994603;28;46079;-56
2021/12/05 16:16:22;;;;;;;;;13.40;9.80;;;;;6.48;75.14;99973.84;4978805;28;45412;-58
2021/12/05 16:18:50;;;;;;;;;5.80;5.80;;;;;6.47;75.28;99979.50;4978079;28;45476;-60
2021/12/05 16:21:18;;;;;;;;;7.40;6.20;;;;;6.45;74.74;99973.44;4995905;28;45480;-59
2021/12/05 16:23:44;;;;;;;;;7.80;7.80;;;;;6.45;74.82;99981.59;4981842;28;46707;-57
2021/12/05 16:26:20;;;;;;;;;5.25;5.00;;;;;6.47;74.30;99983.06;5010636;28;45838;-62
2021/12/05 16:28:53;;;;;;;;;4.80;2.80;;;;;6.47;74.18;99987.69;4925772;28;46183;-60
2021/12/05 16:31:26;;;;;;;;;5.00;5.00;;;;;6.46;75.00;99989.56;4972951;28;45500;-58
2021/12/05 16:33:52;;;;;;;;;8.00;6.20;;;;;6.44;75.00;100002.56;5000194;28;45657;-58
2021/12/05 16:36:19;;;;;;;;;2.20;2.00;;;;;6.48;75.40;100009.31;4994423;28;45443;-56
2021/12/05 16:38:50;;;;;;;;;7.20;5.00;;;;;6.46;74.71;100002.38;4991549;28;45457;-60
2021/12/05 16:41:29;;;;;;;;;5.80;3.20;;;;;6.47;75.17;100014.94;4990680;28;45636;-63
2021/12/05 16:43:59;;;;;;;;;7.40;5.20;;;;;6.50;74.94;100009.06;4989226;28;46018;-58
2021/12/05 16:46:29;;;;;;;;;5.00;5.00;;;;;6.44;75.70;100005.28;4983938;28;45953;-60
2021/12/05 16:48:56;;;;;;;;;10.80;10.40;;;;;6.45;74.90;100012.41;4968194;28;45430;-59
2021/12/05 16:51:25;;;;;;;;;10.60;8.60;;;;;6.55;75.69;100033.03;4952742;28;45839;-58
2021/12/05 16:53:52;;;;;;;;;10.80;7.60;;;;;6.56;74.92;100037.44;4973326;28;46459;-57
2021/12/05 16:56:48;;;;;;;;;6.60;6.60;;;;;6.53;75.39;100038.69;4971522;28;45883;-61
2021/12/05 16:59:30;;;;;;;;;5.40;4.20;;;;;6.41;75.62;100016.59;4993146;28;45454;-57
2021/12/05 17:02:09;;;;;;;;;11.00;8.80;;;;;6.49;75.59;100038.25;4992301;28;45539;-62
2021/12/05 17:04:48;;;;;;;;;13.00;9.80;;;;;6.50;74.95;100044.53;5010741;28;45938;-60
2021/12/05 17:07:16;;;;;;;;;9.20;9.20;;;;;6.22;74.92;99999.09;5010588;28;45523;-59
2021/12/05 17:09:42;;;;;;;;;22.80;20.40;;;;;6.53;74.80;100052.31;4991468;28;45883;-59
2021/12/05 17:12:35;;;;;;;;;5.00;5.00;;;;;6.53;73.87;100051.47;4996151;28;45470;-62
2021/12/05 17:15:21;;;;;;;;;2.80;2.60;;;;;6.51;74.32;100055.22;4987001;28;46360;-56